createdAt,value
2022-12-18T00:01:34.265Z,-0.49
2022-12-18T00:04:09.016Z,-0.43
2022-12-18T00:06:36.847Z,-0.54
2022-12-18T00:09:04.598Z,-0.44
2022-12-18T00:11:32.836Z,-0.44
2022-12-18T00:14:01.078Z,-0.52
2022-12-18T00:16:31.281Z,-0.48
2022-12-18T00:18:59.372Z,-0.48
2022-12-18T00:21:28.194Z,-0.41
2022-12-18T00:23:56.273Z,-0.47
2022-12-18T00:26:26.670Z,-0.44
2022-12-18T00:28:56.706Z,-0.48
2022-12-18T00:31:25.858Z,-0.48
2022-12-18T00:33:58.273Z,-0.53
2022-12-18T00:36:28.741Z,-0.42
2022-12-18T00:38:59.206Z,-0.49
2022-12-18T00:41:46.247Z,-0.50
2022-12-18T00:44:16.078Z,-0.45
2022-12-18T00:46:44.690Z,-0.44
2022-12-18T00:49:14.341Z,-0.49
2022-12-18T00:51:41.893Z,-0.58
2022-12-18T00:54:11.339Z,-0.54
2022-12-18T00:56:48.267Z,-0.54
2022-12-18T00:59:18.412Z,-0.56
2022-12-18T01:01:47.128Z,-0.51
2022-12-18T01:04:15.571Z,-0.53
2022-12-18T01:06:46.249Z,-0.56
2022-12-18T01:09:13.737Z,-0.64
2022-12-18T01:11:41.353Z,-0.64
2022-12-18T01:14:09.183Z,-0.60
2022-12-18T01:16:38.618Z,-0.60
2022-12-18T01:19:06.142Z,-0.58
2022-12-18T01:21:34.874Z,-0.57
2022-12-18T01:24:05.424Z,-0.58
2022-12-18T01:26:32.910Z,-0.51
2022-12-18T01:29:00.776Z,-0.50
2022-12-18T01:31:32.036Z,-0.66
2022-12-18T01:34:02.273Z,-0.67
2022-12-18T01:36:35.440Z,-0.59
2022-12-18T01:39:08.689Z,-0.63
2022-12-18T01:41:55.028Z,-0.58
2022-12-18T01:44:56.687Z,-0.61
2022-12-18T01:47:28.139Z,-0.62
2022-12-18T01:49:57.936Z,-0.62
2022-12-18T01:52:29.252Z,-0.66
2022-12-18T01:54:57.615Z,-0.66
2022-12-18T01:57:28.151Z,-0.76
2022-12-18T02:00:00.755Z,-0.83
2022-12-18T02:02:30.138Z,-0.99
2022-12-18T02:05:00.096Z,-0.99
2022-12-18T02:07:38.941Z,-0.98
2022-12-18T02:10:14.872Z,-1.17
2022-12-18T02:13:14.882Z,-1.07
2022-12-18T02:16:00.478Z,-1.15
2022-12-18T02:18:39.446Z,-1.25
2022-12-18T02:21:09.484Z,-1.30
2022-12-18T02:23:37.573Z,-1.21
2022-12-18T02:26:10.809Z,-1.19
2022-12-18T02:29:04.443Z,-1.11
2022-12-18T02:31:39.067Z,-1.23
2022-12-18T02:34:10.841Z,-1.25
2022-12-18T02:36:43.583Z,-1.24
2022-12-18T02:39:13.362Z,-1.21
2022-12-18T02:41:42.962Z,-1.22
2022-12-18T02:44:13.941Z,-1.29
2022-12-18T02:46:46.491Z,-1.28
2022-12-18T02:49:41.745Z,-1.46
2022-12-18T02:52:47.266Z,-1.56
2022-12-18T02:55:59.842Z,-1.65
2022-12-18T02:58:27.213Z,-1.65
2022-12-18T03:01:08.693Z,-1.63
2022-12-18T03:03:45.354Z,-1.65
2022-12-18T03:06:25.040Z,-1.63
2022-12-18T03:08:59.273Z,-1.55
2022-12-18T03:11:50.970Z,-1.49
2022-12-18T03:14:21.969Z,-1.71
2022-12-18T03:16:53.493Z,-1.71
2022-12-18T03:19:26.079Z,-1.69
2022-12-18T03:21:57.226Z,-1.56
2022-12-18T03:24:29.025Z,-1.58
2022-12-18T03:27:03.584Z,-1.66
2022-12-18T03:29:35.136Z,-1.74
2022-12-18T03:32:11.599Z,-1.70
2022-12-18T03:34:42.437Z,-1.85
2022-12-18T03:37:10.986Z,-1.89
2022-12-18T03:39:38.930Z,-1.91
2022-12-18T03:42:16.782Z,-1.85
2022-12-18T03:45:04.844Z,-1.82
2022-12-18T03:47:51.537Z,-1.91
2022-12-18T03:50:28.326Z,-1.89
2022-12-18T03:53:03.329Z,-1.85
2022-12-18T03:55:35.801Z,-1.94
2022-12-18T03:58:07.245Z,-1.98
2022-12-18T04:00:38.774Z,-2.06
2022-12-18T04:03:09.594Z,-2.03
2022-12-18T04:05:38.570Z,-1.98
2022-12-18T04:08:07.210Z,-1.87
2022-12-18T04:10:37.344Z,-1.85
2022-12-18T04:13:04.929Z,-1.79
2022-12-18T04:15:37.868Z,-1.77
2022-12-18T04:18:05.705Z,-1.70
2022-12-18T04:20:33.885Z,-1.67
2022-12-18T04:23:01.941Z,-1.67
2022-12-18T04:25:30.142Z,-1.80
2022-12-18T04:27:59.108Z,-1.77
2022-12-18T04:30:26.521Z,-1.70
2022-12-18T04:32:53.963Z,-1.66
2022-12-18T04:35:22.671Z,-1.68
2022-12-18T04:37:50.444Z,-1.66
2022-12-18T04:40:17.974Z,-1.69
2022-12-18T04:42:46.806Z,-1.79
2022-12-18T04:45:14.383Z,-1.86
2022-12-18T04:47:41.824Z,-1.87
2022-12-18T04:50:09.685Z,-1.83
2022-12-18T04:52:37.390Z,-1.72
2022-12-18T04:55:05.114Z,-1.67
2022-12-18T04:57:32.874Z,-1.58
2022-12-18T05:00:00.277Z,-1.51
2022-12-18T05:02:27.760Z,-1.48
2022-12-18T05:04:55.554Z,-1.49
2022-12-18T05:07:23.014Z,-1.44
2022-12-18T05:09:50.430Z,-1.49
2022-12-18T05:12:18.121Z,-1.40
2022-12-18T05:14:45.609Z,-1.41
2022-12-18T05:17:13.334Z,-1.41
2022-12-18T05:19:41.042Z,-1.35
2022-12-18T05:22:08.932Z,-1.31
2022-12-18T05:24:36.754Z,-1.33
2022-12-18T05:27:05.014Z,-1.36
2022-12-18T05:29:32.489Z,-1.33
2022-12-18T05:31:59.926Z,-1.30
2022-12-18T05:34:27.620Z,-1.34
2022-12-18T05:36:55.055Z,-1.37
2022-12-18T05:39:22.433Z,-1.40
2022-12-18T05:41:50.113Z,-1.34
2022-12-18T05:44:17.490Z,-1.36
2022-12-18T05:46:44.970Z,-1.45
2022-12-18T05:49:12.700Z,-1.48
2022-12-18T05:51:40.099Z,-1.47
2022-12-18T05:54:08.790Z,-1.61
2022-12-18T05:56:36.554Z,-1.66
2022-12-18T05:59:04.019Z,-1.74
2022-12-18T06:01:31.571Z,-1.61
2022-12-18T06:04:00.085Z,-1.63
2022-12-18T06:06:29.862Z,-1.76
2022-12-18T06:08:58.085Z,-1.69
2022-12-18T06:11:27.583Z,-1.70
2022-12-18T06:13:59.068Z,-1.77
2022-12-18T06:16:30.965Z,-1.89
2022-12-18T06:18:59.991Z,-1.90
2022-12-18T06:21:28.801Z,-1.90
2022-12-18T06:23:56.212Z,-1.93
2022-12-18T06:26:28.063Z,-2.03
2022-12-18T06:28:56.438Z,-1.97
2022-12-18T06:31:24.199Z,-2.00
2022-12-18T06:33:51.644Z,-1.98
2022-12-18T06:36:19.489Z,-2.10
2022-12-18T06:38:46.949Z,-2.10
2022-12-18T06:41:19.705Z,-2.13
2022-12-18T06:43:47.894Z,-2.19
2022-12-18T06:46:15.605Z,-2.17
2022-12-18T06:48:43.441Z,-2.16
2022-12-18T06:51:11.147Z,-2.14
2022-12-18T06:53:38.815Z,-2.10
2022-12-18T06:56:10.516Z,-2.11
2022-12-18T06:58:40.308Z,-2.14
2022-12-18T07:01:11.463Z,-2.03
2022-12-18T07:03:41.898Z,-1.98
2022-12-18T07:06:21.443Z,-2.05
2022-12-18T07:08:50.501Z,-2.01
2022-12-18T07:11:19.002Z,-1.94
2022-12-18T07:13:47.346Z,-1.90
2022-12-18T07:16:24.334Z,-1.89
2022-12-18T07:18:55.073Z,-1.79
2022-12-18T07:21:24.411Z,-1.78
2022-12-18T07:23:52.157Z,-1.75
2022-12-18T07:26:21.729Z,-1.69
2022-12-18T07:28:50.306Z,-1.69
2022-12-18T07:31:21.607Z,-1.61
2022-12-18T07:33:50.902Z,-1.54
2022-12-18T07:36:18.618Z,-1.44
2022-12-18T07:38:49.120Z,-1.42
2022-12-18T07:41:17.413Z,-1.37
2022-12-18T07:43:45.134Z,-1.29
2022-12-18T07:46:17.103Z,-1.25
2022-12-18T07:48:50.086Z,-1.08
2022-12-18T07:51:18.895Z,-0.98
2022-12-18T07:53:46.790Z,-0.95
2022-12-18T07:56:30.093Z,-0.95
2022-12-18T07:59:00.112Z,-0.86
2022-12-18T08:01:28.228Z,-0.75
2022-12-18T08:03:56.254Z,-0.61
2022-12-18T08:06:24.510Z,-0.47
2022-12-18T08:08:56.552Z,-0.31
2022-12-18T08:11:26.764Z,-0.19
2022-12-18T08:13:54.724Z,0.00
2022-12-18T08:16:23.429Z,0.20
2022-12-18T08:18:53.390Z,0.47
2022-12-18T08:21:24.662Z,0.67
2022-12-18T08:23:54.406Z,0.91
2022-12-18T08:26:22.715Z,1.02
2022-12-18T08:28:51.311Z,1.22
2022-12-18T08:31:19.823Z,1.47
2022-12-18T08:33:53.324Z,1.69
2022-12-18T08:36:21.683Z,1.93
2022-12-18T08:38:49.287Z,2.05
2022-12-18T08:41:17.937Z,2.43
2022-12-18T08:44:04.959Z,2.57
2022-12-18T08:46:42.099Z,2.72
2022-12-18T08:49:11.456Z,3.01
2022-12-18T08:51:39.781Z,3.24
2022-12-18T08:54:07.918Z,3.65
2022-12-18T08:56:36.174Z,3.68
2022-12-18T08:59:03.826Z,3.69
2022-12-18T09:01:31.725Z,3.96
2022-12-18T09:04:00.166Z,4.15
2022-12-18T09:06:27.681Z,4.03
2022-12-18T09:08:55.168Z,4.17
2022-12-18T09:11:25.750Z,4.21
2022-12-18T09:13:54.959Z,4.18
2022-12-18T09:16:27.410Z,4.38
2022-12-18T09:19:00.723Z,4.31
2022-12-18T09:21:31.353Z,4.45
2022-12-18T09:24:00.355Z,4.18
2022-12-18T09:26:28.409Z,4.38
2022-12-18T09:28:56.910Z,4.23
2022-12-18T09:31:25.715Z,4.36
2022-12-18T09:33:53.551Z,3.95
2022-12-18T09:36:21.023Z,4.03
2022-12-18T09:38:49.307Z,3.96
2022-12-18T09:41:35.965Z,3.93
2022-12-18T09:44:26.048Z,4.13
2022-12-18T09:46:56.898Z,4.18
2022-12-18T09:49:30.342Z,4.53
2022-12-18T09:52:09.677Z,4.84
2022-12-18T09:54:40.958Z,4.76
2022-12-18T09:57:20.596Z,4.83
2022-12-18T09:59:54.618Z,5.34
2022-12-18T10:02:25.573Z,5.51
2022-12-18T10:05:07.030Z,5.89
2022-12-18T10:07:43.592Z,5.99
2022-12-18T10:10:30.478Z,6.14
2022-12-18T10:13:08.359Z,6.40
2022-12-18T10:16:17.358Z,6.77
2022-12-18T10:19:02.106Z,6.77
2022-12-18T10:21:35.835Z,7.03
2022-12-18T10:24:06.114Z,6.95
2022-12-18T10:26:34.093Z,6.78
2022-12-18T10:29:05.709Z,6.67
2022-12-18T10:31:33.692Z,6.50
2022-12-18T10:34:01.466Z,6.65
2022-12-18T10:36:29.038Z,6.48
2022-12-18T10:39:17.025Z,6.26
2022-12-18T10:41:44.709Z,6.09
2022-12-18T10:44:21.388Z,6.32
2022-12-18T10:46:57.110Z,6.28
2022-12-18T10:49:29.044Z,6.04
2022-12-18T10:52:16.477Z,5.83
2022-12-18T10:54:59.990Z,5.93
2022-12-18T10:57:27.329Z,5.90
2022-12-18T10:59:57.283Z,6.17
2022-12-18T11:02:35.406Z,5.91
2022-12-18T11:05:06.346Z,5.76
2022-12-18T11:07:51.222Z,6.06
2022-12-18T11:10:20.736Z,6.15
2022-12-18T11:12:49.049Z,6.29
2022-12-18T11:15:30.779Z,6.31
2022-12-18T11:17:59.279Z,6.19
2022-12-18T11:20:36.890Z,6.03
2022-12-18T11:23:13.137Z,5.98
2022-12-18T11:25:40.857Z,5.71
2022-12-18T11:28:37.062Z,5.32
2022-12-18T11:31:28.818Z,5.54
2022-12-18T11:34:34.352Z,5.69
2022-12-18T11:37:04.593Z,5.46
2022-12-18T11:39:40.299Z,5.35
2022-12-18T11:42:21.485Z,5.54
2022-12-18T11:44:59.430Z,5.63
2022-12-18T11:47:39.734Z,5.31
2022-12-18T11:50:40.054Z,5.42
2022-12-18T11:53:12.135Z,5.51
2022-12-18T11:55:58.015Z,5.35
2022-12-18T11:58:48.429Z,5.86
2022-12-18T12:01:38.971Z,5.84
2022-12-18T12:04:32.642Z,5.83
2022-12-18T12:07:12.276Z,5.87
2022-12-18T12:10:03.847Z,5.87
2022-12-18T12:12:51.085Z,5.87
2022-12-18T12:15:28.714Z,5.32
2022-12-18T12:18:21.947Z,5.77
2022-12-18T12:21:23.358Z,6.15
2022-12-18T12:24:15.019Z,6.21
2022-12-18T12:26:42.679Z,6.11
2022-12-18T12:29:28.743Z,5.85
2022-12-18T12:32:08.433Z,5.82
2022-12-18T12:34:51.743Z,6.22
2022-12-18T12:37:38.355Z,6.06
2022-12-18T12:40:26.937Z,6.04
2022-12-18T12:43:14.522Z,5.89
2022-12-18T12:45:56.973Z,5.86
2022-12-18T12:48:40.259Z,5.90
2022-12-18T12:51:14.046Z,6.14
2022-12-18T12:53:42.942Z,6.12
2022-12-18T12:56:14.239Z,6.21
2022-12-18T12:59:00.290Z,6.30
2022-12-18T13:01:43.198Z,6.14
2022-12-18T13:04:26.843Z,6.17
2022-12-18T13:07:05.438Z,5.97
2022-12-18T13:09:36.818Z,6.05
2022-12-18T13:12:30.436Z,5.90
2022-12-18T13:15:31.555Z,5.76
2022-12-18T13:18:09.961Z,6.08
2022-12-18T13:20:41.297Z,6.05
2022-12-18T13:23:27.144Z,5.58
2022-12-18T13:25:58.643Z,5.45
2022-12-18T13:28:35.005Z,5.17
2022-12-18T13:31:04.049Z,4.97
2022-12-18T13:33:31.382Z,4.61
2022-12-18T13:36:10.973Z,4.63
2022-12-18T13:38:40.542Z,4.64
2022-12-18T13:41:20.021Z,4.54
2022-12-18T13:43:50.157Z,4.32
2022-12-18T13:46:25.398Z,4.14
2022-12-18T13:49:39.218Z,3.83
2022-12-18T13:52:28.742Z,3.77
2022-12-18T13:54:58.780Z,3.50
2022-12-18T13:57:44.760Z,3.56
2022-12-18T14:00:30.468Z,3.40
2022-12-18T14:02:59.378Z,3.25
2022-12-18T14:05:38.648Z,3.33
2022-12-18T14:08:15.346Z,3.20
2022-12-18T14:10:49.160Z,3.20
2022-12-18T14:13:33.159Z,3.03
2022-12-18T14:16:04.365Z,2.85
2022-12-18T14:18:35.153Z,2.58
2022-12-18T14:21:05.120Z,2.59
2022-12-18T14:23:37.635Z,2.55
2022-12-18T14:26:24.214Z,2.47
2022-12-18T14:28:52.285Z,2.45
2022-12-18T14:31:25.319Z,2.18
2022-12-18T14:33:54.361Z,1.98
2022-12-18T14:36:27.505Z,1.90
2022-12-18T14:38:57.718Z,1.72
2022-12-18T14:41:27.071Z,1.72
2022-12-18T14:43:55.800Z,1.68
2022-12-18T14:46:43.732Z,1.50
2022-12-18T14:49:23.606Z,1.37
2022-12-18T14:51:57.554Z,1.21
2022-12-18T14:54:30.667Z,1.15
2022-12-18T14:56:58.040Z,0.94
2022-12-18T14:59:27.148Z,0.81
2022-12-18T15:01:54.952Z,0.78
2022-12-18T15:04:37.842Z,0.69
2022-12-18T15:07:12.385Z,0.63
2022-12-18T15:09:41.850Z,0.62
2022-12-18T15:12:34.776Z,0.66
2022-12-18T15:15:03.132Z,0.57
2022-12-18T15:17:31.366Z,0.47
2022-12-18T15:20:04.429Z,0.33
2022-12-18T15:22:36.674Z,0.26
2022-12-18T15:25:25.302Z,0.25
2022-12-18T15:27:56.165Z,0.22
2022-12-18T15:30:24.883Z,0.28
2022-12-18T15:33:13.276Z,0.37
2022-12-18T15:35:46.661Z,0.36
2022-12-18T15:38:14.797Z,0.40
2022-12-18T15:40:42.534Z,0.33
2022-12-18T15:43:29.595Z,0.29
2022-12-18T15:45:57.416Z,0.24
2022-12-18T15:48:24.966Z,0.26
2022-12-18T15:50:54.818Z,0.20
2022-12-18T15:53:22.866Z,0.20
2022-12-18T15:56:09.210Z,0.17
2022-12-18T15:58:37.147Z,0.10
2022-12-18T16:01:05.311Z,0.11
2022-12-18T16:03:33.165Z,0.17
2022-12-18T16:06:03.018Z,0.22
2022-12-18T16:08:31.819Z,0.13
2022-12-18T16:10:59.593Z,0.08
2022-12-18T16:13:26.946Z,0.04
2022-12-18T16:15:54.453Z,0.04
2022-12-18T16:18:22.522Z,-0.08
2022-12-18T16:20:50.140Z,-0.03
2022-12-18T16:23:17.531Z,0.03
2022-12-18T16:25:45.309Z,0.01
2022-12-18T16:28:12.775Z,-0.03
2022-12-18T16:30:41.367Z,-0.03
2022-12-18T16:33:12.165Z,-0.04
2022-12-18T16:35:39.605Z,-0.08
2022-12-18T16:38:07.130Z,-0.08
2022-12-18T16:40:54.782Z,-0.09
2022-12-18T16:43:22.226Z,-0.06
2022-12-18T16:45:50.832Z,-0.12
2022-12-18T16:48:19.342Z,-0.17
2022-12-18T16:50:46.998Z,-0.20
2022-12-18T16:53:14.774Z,-0.29
2022-12-18T16:55:42.629Z,-0.43
2022-12-18T16:58:10.151Z,-0.44
2022-12-18T17:00:39.194Z,-0.43
2022-12-18T17:03:06.862Z,-0.32
2022-12-18T17:05:35.325Z,-0.36
2022-12-18T17:08:03.061Z,-0.52
2022-12-18T17:10:31.205Z,-0.49
2022-12-18T17:12:58.671Z,-0.59
2022-12-18T17:15:26.493Z,-0.61
2022-12-18T17:17:53.901Z,-0.48
2022-12-18T17:20:22.946Z,-0.64
2022-12-18T17:22:50.629Z,-0.73
2022-12-18T17:25:18.025Z,-0.74
2022-12-18T17:27:45.464Z,-0.67
2022-12-18T17:30:13.633Z,-0.55
2022-12-18T17:32:41.141Z,-0.61
2022-12-18T17:35:08.939Z,-0.73
2022-12-18T17:37:36.747Z,-0.70
2022-12-18T17:40:04.665Z,-0.83
2022-12-18T17:42:32.151Z,-0.84
2022-12-18T17:44:59.922Z,-0.78
2022-12-18T17:47:27.376Z,-0.84
2022-12-18T17:49:55.006Z,-0.80
2022-12-18T17:52:23.648Z,-0.72
2022-12-18T17:54:51.066Z,-0.61
2022-12-18T17:57:18.822Z,-0.73
2022-12-18T17:59:46.590Z,-0.66
2022-12-18T18:02:14.174Z,-0.62
2022-12-18T18:04:42.002Z,-0.57
2022-12-18T18:07:10.182Z,-0.55
2022-12-18T18:09:38.076Z,-0.66
2022-12-18T18:12:24.634Z,-0.61
2022-12-18T18:14:52.876Z,-0.50
2022-12-18T18:17:20.771Z,-0.48
2022-12-18T18:19:49.449Z,-0.67
2022-12-18T18:22:17.351Z,-0.61
2022-12-18T18:24:46.958Z,-0.63
2022-12-18T18:27:15.110Z,-0.62
2022-12-18T18:29:42.542Z,-0.53
2022-12-18T18:32:10.385Z,-0.67
2022-12-18T18:34:40.896Z,-0.69
2022-12-18T18:37:10.001Z,-0.69
2022-12-18T18:39:37.791Z,-0.56
2022-12-18T18:42:05.436Z,-0.60
2022-12-18T18:44:32.887Z,-0.62
2022-12-18T18:47:00.646Z,-0.62
2022-12-18T18:49:29.992Z,-0.61
2022-12-18T18:51:57.868Z,-0.59
2022-12-18T18:54:26.110Z,-0.58
2022-12-18T18:57:19.440Z,-0.58
2022-12-18T18:59:42.315Z,-0.56
2022-12-18T19:02:13.399Z,0.07
2022-12-18T19:04:46.199Z,-0.14
2022-12-18T19:07:28.113Z,-0.20
2022-12-18T19:10:05.151Z,-0.34
2022-12-18T19:12:52.932Z,-0.58
2022-12-18T19:15:22.342Z,-0.50
2022-12-18T19:17:50.114Z,-0.61
2022-12-18T19:20:18.290Z,-0.60
2022-12-18T19:22:55.073Z,-0.61
2022-12-18T19:25:38.232Z,-0.61
2022-12-18T19:28:21.565Z,-0.64
2022-12-18T19:30:51.457Z,-0.69
2022-12-18T19:33:44.585Z,-0.86
2022-12-18T19:36:23.205Z,-0.87
2022-12-18T19:38:52.618Z,-0.79
2022-12-18T19:41:21.578Z,-0.90
2022-12-18T19:43:50.605Z,-0.87
2022-12-18T19:46:22.871Z,-0.92
2022-12-18T19:48:50.846Z,-0.85
2022-12-18T19:51:22.411Z,-0.91
2022-12-18T19:53:53.667Z,-0.87
2022-12-18T19:56:26.877Z,-0.90
2022-12-18T19:58:55.483Z,-0.89
2022-12-18T20:01:24.972Z,-0.78
2022-12-18T20:03:54.604Z,-0.72
2022-12-18T20:06:26.077Z,-0.68
2022-12-18T20:08:57.678Z,-0.86
2022-12-18T20:11:30.174Z,-0.78
2022-12-18T20:13:58.723Z,-0.86
2022-12-18T20:16:26.249Z,-0.81
2022-12-18T20:18:56.202Z,-0.69
2022-12-18T20:21:25.345Z,-0.64
2022-12-18T20:23:54.516Z,-0.68
2022-12-18T20:26:23.058Z,-0.67
2022-12-18T20:28:50.825Z,-0.76
2022-12-18T20:31:18.383Z,-0.90
2022-12-18T20:33:48.727Z,-1.09
2022-12-18T20:36:22.372Z,-1.08
2022-12-18T20:38:51.922Z,-1.11
2022-12-18T20:41:23.605Z,-1.01
2022-12-18T20:43:51.566Z,-0.93
2022-12-18T20:46:19.443Z,-0.93
2022-12-18T20:48:47.876Z,-1.07
2022-12-18T20:51:17.949Z,-1.04
2022-12-18T20:53:46.465Z,-1.11
2022-12-18T20:56:23.011Z,-1.23
2022-12-18T20:58:54.914Z,-1.31
2022-12-18T21:01:24.190Z,-1.35
2022-12-18T21:03:52.309Z,-1.37
2022-12-18T21:06:22.154Z,-1.30
2022-12-18T21:08:50.021Z,-1.21
2022-12-18T21:11:50.139Z,-1.28
2022-12-18T21:14:19.643Z,-1.30
2022-12-18T21:16:48.557Z,-1.22
2022-12-18T21:19:18.923Z,-1.00
2022-12-18T21:21:47.452Z,-1.01
2022-12-18T21:24:15.721Z,-1.07
2022-12-18T21:26:46.035Z,-1.04
2022-12-18T21:29:16.700Z,-0.91
2022-12-18T21:31:45.523Z,-0.92
2022-12-18T21:34:21.791Z,-0.96
2022-12-18T21:36:49.745Z,-0.81
2022-12-18T21:39:18.205Z,-0.86
2022-12-18T21:42:05.797Z,-0.80
2022-12-18T21:44:41.726Z,-0.92
2022-12-18T21:47:21.908Z,-1.01
2022-12-18T21:49:54.377Z,-1.10
2022-12-18T21:52:31.358Z,-1.09
2022-12-18T21:55:09.103Z,-1.07
2022-12-18T21:57:39.268Z,-1.15
2022-12-18T22:00:10.706Z,-1.18
2022-12-18T22:02:44.715Z,-0.94
2022-12-18T22:05:12.687Z,-0.82
2022-12-18T22:07:40.853Z,-0.98
2022-12-18T22:10:09.159Z,-0.93
2022-12-18T22:12:44.038Z,-0.90
2022-12-18T22:15:21.205Z,-1.01
2022-12-18T22:17:59.675Z,-1.14
2022-12-18T22:20:30.030Z,-1.26
2022-12-18T22:22:58.302Z,-1.24
2022-12-18T22:25:25.833Z,-1.31
2022-12-18T22:28:12.027Z,-1.36
2022-12-18T22:30:39.748Z,-1.36
2022-12-18T22:33:07.438Z,-1.36
2022-12-18T22:35:34.916Z,-1.43
2022-12-18T22:38:03.406Z,-1.42
2022-12-18T22:40:31.150Z,-1.55
2022-12-18T22:42:58.684Z,-1.59
2022-12-18T22:45:26.814Z,-1.67
2022-12-18T22:47:54.538Z,-1.69
2022-12-18T22:50:21.977Z,-1.56
2022-12-18T22:52:49.373Z,-1.62
2022-12-18T22:55:17.197Z,-1.56
2022-12-18T22:57:48.591Z,-1.62
2022-12-18T23:00:24.231Z,-1.75
2022-12-18T23:02:59.356Z,-1.81
2022-12-18T23:05:31.703Z,-1.87
2022-12-18T23:07:59.521Z,-1.81
2022-12-18T23:10:28.227Z,-1.76
2022-12-18T23:12:55.840Z,-1.70
2022-12-18T23:15:27.758Z,-1.71
2022-12-18T23:17:58.401Z,-1.72
2022-12-18T23:20:27.613Z,-1.76
2022-12-18T23:22:55.230Z,-1.81
2022-12-18T23:25:23.182Z,-1.85
2022-12-18T23:27:50.729Z,-1.79
2022-12-18T23:30:18.210Z,-1.79
2022-12-18T23:32:45.949Z,-1.76
2022-12-18T23:35:15.642Z,-1.64
2022-12-18T23:38:00.538Z,-1.72
2022-12-18T23:40:29.599Z,-1.71
2022-12-18T23:42:58.610Z,-1.64
2022-12-18T23:45:26.050Z,-1.57
2022-12-18T23:47:53.734Z,-1.51
2022-12-18T23:50:25.410Z,-1.47
2022-12-18T23:53:04.592Z,-1.40
2022-12-18T23:55:37.391Z,-1.42
2022-12-18T23:58:05.147Z,-1.41
